DLH1G EDDH-EDDW
Flight info
| Callsign | DLH1G |
|---|---|
| Flight time | 0h 21m |
| Altitude | 14000 |
| Route | WSN5G WSN L23 GIBMA GIBMA2P |
| Aircraft | A320/M-SDE3FGHIRWY/LB1 |
Departure
| Time | 2026-04-26 22:37 |
|---|---|
| Airport | Hamburg Helmut Schmidt Airport (EDDH) |
Arrival
| Time | 2026-04-26 22:59 |
|---|---|
| Airport | Bremen Airport (EDDW) |
| Time | Latitude | Longitude | Altitude | Speed | Heading |
|---|---|---|---|---|---|
| 2026-04-26 22:23 | 53.63373 | 10.00350 | 48 ft | 0 kts | 86° |
| 2026-04-26 22:30 | 53.63373 | 10.00347 | 48 ft | 1 kts | 86° |
| 2026-04-26 22:30 | 53.63372 | 10.00320 | 43 ft | 3 kts | 86° |
| 2026-04-26 22:30 | 53.63371 | 10.00286 | 43 ft | 3 kts | 86° |
| 2026-04-26 22:31 | 53.63370 | 10.00257 | 47 ft | 2 kts | 87° |
| 2026-04-26 22:31 | 53.63370 | 10.00225 | 46 ft | 3 kts | 113° |
| 2026-04-26 22:31 | 53.63381 | 10.00200 | 45 ft | 3 kts | 154° |
| 2026-04-26 22:31 | 53.63399 | 10.00190 | 43 ft | 2 kts | 174° |
| 2026-04-26 22:32 | 53.63408 | 10.00189 | 46 ft | 1 kts | 176° |
| 2026-04-26 22:32 | 53.63409 | 10.00189 | 46 ft | 0 kts | 176° |
| 2026-04-26 22:34 | 53.63359 | 10.00195 | 47 ft | 17 kts | 176° |
| 2026-04-26 22:34 | 53.63269 | 10.00207 | 45 ft | 12 kts | 175° |
| 2026-04-26 22:34 | 53.63190 | 10.00217 | 48 ft | 11 kts | 176° |
| 2026-04-26 22:35 | 53.63120 | 10.00225 | 48 ft | 9 kts | 176° |
| 2026-04-26 22:35 | 53.63054 | 10.00208 | 48 ft | 11 kts | 210° |
| 2026-04-26 22:35 | 53.62992 | 10.00141 | 48 ft | 10 kts | 213° |
| 2026-04-26 22:35 | 53.62923 | 10.00067 | 46 ft | 13 kts | 213° |
| 2026-04-26 22:36 | 53.62854 | 9.99989 | 48 ft | 11 kts | 229° |
| 2026-04-26 22:36 | 53.62818 | 9.99868 | 44 ft | 12 kts | 248° |
| 2026-04-26 22:36 | 53.62855 | 9.99756 | 45 ft | 14 kts | 331° |
| 2026-04-26 22:36 | 53.63066 | 9.99572 | 46 ft | 68 kts | 333° |
| 2026-04-26 22:37 | 53.63681 | 9.99040 | 48 ft | 128 kts | 333° |
| 2026-04-26 22:37 | 53.64601 | 9.98248 | 221 ft | 160 kts | 333° |
| 2026-04-26 22:37 | 53.65617 | 9.97415 | 922 ft | 164 kts | 334° |
| 2026-04-26 22:37 | 53.66669 | 9.96632 | 1696 ft | 168 kts | 336° |
| 2026-04-26 22:38 | 53.67759 | 9.95824 | 2304 ft | 175 kts | 334° |
| 2026-04-26 22:38 | 53.68847 | 9.94826 | 2913 ft | 181 kts | 331° |
| 2026-04-26 22:38 | 53.69959 | 9.93789 | 3409 ft | 193 kts | 332° |
| 2026-04-26 22:38 | 53.71064 | 9.92387 | 3877 ft | 206 kts | 308° |
| 2026-04-26 22:39 | 53.71529 | 9.90037 | 4442 ft | 227 kts | 271° |
| 2026-04-26 22:39 | 53.71185 | 9.87264 | 4883 ft | 255 kts | 256° |
| 2026-04-26 22:39 | 53.70619 | 9.84354 | 5618 ft | 265 kts | 255° |
| 2026-04-26 22:39 | 53.69996 | 9.81387 | 6545 ft | 269 kts | 255° |
| 2026-04-26 22:40 | 53.69367 | 9.78404 | 7436 ft | 271 kts | 256° |
| 2026-04-26 22:40 | 53.68742 | 9.75398 | 8332 ft | 273 kts | 257° |
| 2026-04-26 22:40 | 53.68124 | 9.72357 | 9219 ft | 275 kts | 258° |
| 2026-04-26 22:40 | 53.67510 | 9.69293 | 10107 ft | 278 kts | 258° |
| 2026-04-26 22:41 | 53.66888 | 9.66155 | 10688 ft | 291 kts | 259° |
| 2026-04-26 22:41 | 53.66230 | 9.62778 | 10930 ft | 315 kts | 258° |
| 2026-04-26 22:41 | 53.65488 | 9.59178 | 11307 ft | 334 kts | 253° |
| 2026-04-26 22:41 | 53.64318 | 9.55698 | 11980 ft | 348 kts | 241° |
| 2026-04-26 22:42 | 53.62879 | 9.52382 | 12718 ft | 352 kts | 240° |
| 2026-04-26 22:42 | 53.61438 | 9.49036 | 13468 ft | 355 kts | 241° |
| 2026-04-26 22:42 | 53.59984 | 9.45650 | 14097 ft | 359 kts | 241° |
| 2026-04-26 22:42 | 53.58518 | 9.42241 | 14275 ft | 359 kts | 241° |
| 2026-04-26 22:43 | 53.57047 | 9.38816 | 14326 ft | 374 kts | 240° |
| 2026-04-26 22:43 | 53.55507 | 9.35220 | 14329 ft | 380 kts | 240° |
| 2026-04-26 22:43 | 53.53953 | 9.31608 | 14323 ft | 382 kts | 240° |
| 2026-04-26 22:43 | 53.52391 | 9.27996 | 14321 ft | 382 kts | 240° |
| 2026-04-26 22:44 | 53.50827 | 9.24385 | 14321 ft | 382 kts | 240° |
| 2026-04-26 22:44 | 53.49259 | 9.20772 | 14319 ft | 382 kts | 240° |
| 2026-04-26 22:44 | 53.47695 | 9.17170 | 14319 ft | 381 kts | 240° |
| 2026-04-26 22:44 | 53.46165 | 9.13670 | 14170 ft | 359 kts | 240° |
| 2026-04-26 22:45 | 53.44706 | 9.10343 | 13582 ft | 351 kts | 240° |
| 2026-04-26 22:45 | 53.43275 | 9.07057 | 13158 ft | 347 kts | 240° |
| 2026-04-26 22:45 | 53.41862 | 9.03808 | 12675 ft | 344 kts | 240° |
| 2026-04-26 22:45 | 53.40453 | 9.00576 | 12189 ft | 342 kts | 240° |
| 2026-04-26 22:46 | 53.39049 | 8.97368 | 11707 ft | 340 kts | 240° |
| 2026-04-26 22:46 | 53.37656 | 8.94189 | 11227 ft | 338 kts | 240° |
| 2026-04-26 22:46 | 53.36268 | 8.91023 | 10760 ft | 337 kts | 239° |
| 2026-04-26 22:46 | 53.34674 | 8.88154 | 10362 ft | 333 kts | 225° |
| 2026-04-26 22:47 | 53.32807 | 8.86045 | 10246 ft | 317 kts | 213° |
| 2026-04-26 22:47 | 53.30831 | 8.84488 | 10085 ft | 310 kts | 210° |
| 2026-04-26 22:47 | 53.28887 | 8.82993 | 9790 ft | 305 kts | 210° |
| 2026-04-26 22:47 | 53.26970 | 8.81514 | 9427 ft | 303 kts | 210° |
| 2026-04-26 22:48 | 53.25062 | 8.80062 | 9301 ft | 303 kts | 207° |
| 2026-04-26 22:48 | 53.22972 | 8.79355 | 9324 ft | 313 kts | 182° |
| 2026-04-26 22:48 | 53.20834 | 8.80058 | 9263 ft | 317 kts | 158° |
| 2026-04-26 22:48 | 53.19038 | 8.82117 | 8891 ft | 313 kts | 130° |
| 2026-04-26 22:49 | 53.17925 | 8.85147 | 8511 ft | 304 kts | 104° |
| 2026-04-26 22:49 | 53.17471 | 8.88523 | 8267 ft | 293 kts | 95° |
| 2026-04-26 22:49 | 53.17099 | 8.91769 | 8114 ft | 276 kts | 96° |
| 2026-04-26 22:49 | 53.16733 | 8.94862 | 7935 ft | 269 kts | 96° |
| 2026-04-26 22:50 | 53.16493 | 8.96870 | 7779 ft | 265 kts | 96° |
| 2026-04-26 22:50 | 53.16131 | 8.99869 | 7347 ft | 263 kts | 96° |
| 2026-04-26 22:50 | 53.15652 | 9.03807 | 6771 ft | 260 kts | 96° |
| 2026-04-26 22:50 | 53.15296 | 9.06752 | 6314 ft | 258 kts | 96° |
| 2026-04-26 22:51 | 53.14912 | 9.09651 | 5888 ft | 255 kts | 98° |
| 2026-04-26 22:51 | 53.14491 | 9.12497 | 5470 ft | 251 kts | 99° |
| 2026-04-26 22:51 | 53.14168 | 9.14384 | 5180 ft | 250 kts | 103° |
| 2026-04-26 22:51 | 53.13626 | 9.17121 | 4753 ft | 247 kts | 104° |
| 2026-04-26 22:52 | 53.12928 | 9.19675 | 4318 ft | 248 kts | 123° |
| 2026-04-26 22:52 | 53.11644 | 9.21550 | 4006 ft | 247 kts | 153° |
| 2026-04-26 22:52 | 53.09988 | 9.22316 | 4004 ft | 249 kts | 178° |
| 2026-04-26 22:52 | 53.08285 | 9.21938 | 4018 ft | 246 kts | 203° |
| 2026-04-26 22:53 | 53.06838 | 9.20517 | 4006 ft | 239 kts | 227° |
| 2026-04-26 22:53 | 53.05863 | 9.18357 | 4006 ft | 230 kts | 250° |
| 2026-04-26 22:53 | 53.05466 | 9.15928 | 3995 ft | 208 kts | 272° |
| 2026-04-26 22:53 | 53.05413 | 9.13574 | 4016 ft | 202 kts | 274° |
| 2026-04-26 22:54 | 53.05370 | 9.11241 | 3847 ft | 202 kts | 274° |
| 2026-04-26 22:54 | 53.05325 | 9.08960 | 3606 ft | 193 kts | 274° |
| 2026-04-26 22:54 | 53.05281 | 9.06768 | 3352 ft | 187 kts | 274° |
| 2026-04-26 22:54 | 53.05238 | 9.04649 | 3104 ft | 180 kts | 274° |
| 2026-04-26 22:55 | 53.05197 | 9.02622 | 2858 ft | 172 kts | 274° |
| 2026-04-26 22:55 | 53.05157 | 9.00719 | 2625 ft | 161 kts | 274° |
| 2026-04-26 22:55 | 53.05119 | 8.98925 | 2420 ft | 148 kts | 275° |
| 2026-04-26 22:55 | 53.05085 | 8.97273 | 2219 ft | 139 kts | 275° |
| 2026-04-26 22:56 | 53.05053 | 8.95689 | 2028 ft | 136 kts | 275° |
| 2026-04-26 22:56 | 53.05021 | 8.94127 | 1834 ft | 135 kts | 275° |
| 2026-04-26 22:56 | 53.04989 | 8.92573 | 1635 ft | 134 kts | 275° |
| 2026-04-26 22:56 | 53.04959 | 8.91022 | 1477 ft | 135 kts | 275° |
| 2026-04-26 22:57 | 53.04921 | 8.89469 | 1264 ft | 134 kts | 273° |
| 2026-04-26 22:57 | 53.04863 | 8.87921 | 1046 ft | 134 kts | 272° |
| 2026-04-26 22:57 | 53.04843 | 8.86359 | 795 ft | 137 kts | 274° |
| 2026-04-26 22:57 | 53.04799 | 8.84766 | 595 ft | 138 kts | 271° |
| 2026-04-26 22:58 | 53.04758 | 8.83152 | 372 ft | 142 kts | 272° |
| 2026-04-26 22:58 | 53.04737 | 8.81493 | 149 ft | 142 kts | 271° |
| 2026-04-26 22:58 | 53.04715 | 8.79895 | 25 ft | 129 kts | 270° |
| 2026-04-26 22:58 | 53.04688 | 8.78765 | 23 ft | 57 kts | 268° |
| 2026-04-26 22:59 | 53.04680 | 8.78397 | 23 ft | 30 kts | 270° |
| 2026-04-26 22:59 | 53.04670 | 8.78018 | 21 ft | 33 kts | 271° |
| 2026-04-26 22:59 | 53.04664 | 8.77649 | 21 ft | 27 kts | 266° |
| 2026-04-26 22:59 | 53.04699 | 8.77464 | 23 ft | 15 kts | 335° |
| 2026-04-26 23:00 | 53.04805 | 8.77456 | 23 ft | 17 kts | 7° |
| 2026-04-26 23:00 | 53.04920 | 8.77538 | 22 ft | 19 kts | 36° |
| 2026-04-26 23:00 | 53.05013 | 8.77702 | 22 ft | 20 kts | 48° |
| 2026-04-26 23:00 | 53.05115 | 8.77882 | 21 ft | 22 kts | 46° |
| 2026-04-26 23:01 | 53.05192 | 8.78090 | 21 ft | 22 kts | 73° |
| 2026-04-26 23:01 | 53.05169 | 8.78311 | 20 ft | 16 kts | 106° |
| 2026-04-26 23:01 | 53.05191 | 8.78456 | 19 ft | 11 kts | 36° |
| 2026-04-26 23:01 | 53.05205 | 8.78471 | 19 ft | 0 kts | 34° |
| 2026-04-26 23:20 | 53.05194 | 8.78459 | 19 ft | 3 kts | 37° |
| 2026-04-26 23:20 | 53.05178 | 8.78439 | 19 ft | 2 kts | 37° |
| 2026-04-26 23:21 | 53.05164 | 8.78422 | 22 ft | 3 kts | 23° |
| 2026-04-26 23:21 | 53.05146 | 8.78415 | 23 ft | 3 kts | 342° |
| 2026-04-26 23:21 | 53.05130 | 8.78430 | 22 ft | 3 kts | 311° |
| 2026-04-26 23:21 | 53.05121 | 8.78448 | 23 ft | 1 kts | 305° |
| 2026-04-26 23:22 | 53.05119 | 8.78453 | 23 ft | 0 kts | 305° |
| 2026-04-26 23:24 | 53.05120 | 8.78450 | 20 ft | 3 kts | 305° |
| 2026-04-26 23:24 | 53.05157 | 8.78348 | 21 ft | 12 kts | 294° |
| 2026-04-26 23:24 | 53.05182 | 8.78219 | 20 ft | 11 kts | 282° |
| 2026-04-26 23:25 | 53.05190 | 8.78100 | 20 ft | 10 kts | 257° |
| 2026-04-26 23:25 | 53.05158 | 8.77978 | 21 ft | 14 kts | 238° |
| 2026-04-26 23:25 | 53.05091 | 8.77846 | 21 ft | 13 kts | 227° |
| 2026-04-26 23:25 | 53.05028 | 8.77731 | 21 ft | 14 kts | 228° |
| 2026-04-26 23:26 | 53.04959 | 8.77606 | 23 ft | 19 kts | 226° |
| 2026-04-26 23:26 | 53.04844 | 8.77481 | 22 ft | 19 kts | 197° |